Main page
METAR-TAF:

METAR-TAF

Airports :

Châlons Vatry Airport

Châlons-en-Champagne, France

latitude: 48-46-34N, longitude: 004-11-04E, elevation: 179 m

Current weather observation

The report was made 42 minutes ago, at 16:00 UTC
Wind 10 kt from the East/Southeast, varying between East and Southeast
Temperature 16°C
Humidity 39%
Pressure 1020 hPa
Visibility 10 km or more
Few clouds at a height of 100 ft

METAR: LFOK 041600Z AUTO 11010KT 080V140 9999 FEW001 16/02 Q1020 NOSIG

Time: 18:42 (16:42 UTC)

Forecast

The report was made 5 hours and 42 minutes ago, at 11:00 UTC
Forecast valid from 04 at 12 UTC to 05 at 12 UTC
Wind 10 kt from the East/Southeast
Visibility 10 km or more
no clouds below 1500 m and no cumulonimbus
Temporary
from 04 at 23 UTC to 05 at 04 UTC
Wind 3 kt from variable directions

TAF: LFOK 041100Z 0412/0512 12010KT CAVOK TEMPO 0423/0504 VRB03KT

Weather observations and forecasts of more than 4000 airports (METAR and TAF reports).

The available stations are represented by yellow and red dots on the map.

Hover mouse over dot to see the name of the station.

Then click to see weather observations and forecasts.

To change the map : click on the green buttons with a black cross to zoom in, on the green button with a dash to zoom out, or on the green arrows for adjacent maps.


METAR-TAF: